Time;durP1;ratioP1;P1;durP2;ratioP2;P2;SDS_P1;SDS_P2;PMS_P1;PMS_P2;Temp;Humidity;BMP_temperature;BMP_pressure;BME280_temperature;BME280_humidity;BME280_pressure;Samples;Min_cycle;Max_cycle;Signal;HPM_P1;HPM_P2
2021/12/11 00:02:17;;;;;;;37.47;27.00;;;-0.70;99.90;;;;;;5082587;27;89696;-36
2021/12/11 00:04:46;;;;;;;30.17;25.58;;;-0.70;99.90;;;;;;5082059;27;89487;-32
2021/12/11 00:07:14;;;;;;;26.48;22.98;;;-0.70;99.90;;;;;;5063613;27;89655;-35
2021/12/11 00:10:09;;;;;;;27.70;23.92;;;-0.70;99.90;;;;;;5082484;27;88575;-38
2021/12/11 00:12:40;;;;;;;28.70;23.05;;;-0.80;99.90;;;;;;5059715;27;90012;-33
2021/12/11 00:15:20;;;;;;;32.20;23.90;;;-0.80;99.90;;;;;;5082292;27;89350;-31
2021/12/11 00:17:46;;;;;;;29.05;24.08;;;-0.80;99.90;;;;;;5063858;27;92451;-35
2021/12/11 00:20:24;;;;;;;32.35;25.45;;;-0.80;99.90;;;;;;5083499;27;89887;-35
2021/12/11 00:22:50;;;;;;;30.65;23.85;;;-0.80;99.90;;;;;;5063219;27;90561;-30
2021/12/11 00:25:17;;;;;;;34.30;24.63;;;-0.80;99.90;;;;;;5047194;27;89775;-36
2021/12/11 00:27:46;;;;;;;27.92;22.67;;;-0.80;99.90;;;;;;5082501;27;90049;-35
2021/12/11 00:30:26;;;;;;;29.98;22.65;;;-0.80;99.90;;;;;;5082999;27;87789;-35
2021/12/11 00:33:10;;;;;;;25.95;22.02;;;-0.90;99.90;;;;;;5063453;27;90745;-36
2021/12/11 00:35:38;;;;;;;23.63;21.02;;;-0.90;99.90;;;;;;5081963;27;89365;-36
2021/12/11 00:38:33;;;;;;;31.02;23.83;;;-1.00;99.90;;;;;;5082721;27;88274;-34
2021/12/11 00:41:04;;;;;;;27.85;23.50;;;-1.00;99.90;;;;;;5080383;27;90051;-35
2021/12/11 00:43:34;;;;;;;25.70;21.77;;;-1.00;99.90;;;;;;5063469;27;89825;-33
2021/12/11 00:46:01;;;;;;;28.20;22.17;;;-1.00;99.90;;;;;;5081810;27;89421;-36
2021/12/11 00:48:28;;;;;;;32.45;23.50;;;-1.00;99.90;;;;;;5082000;27;89972;-37
2021/12/11 00:51:01;;;;;;;26.95;21.88;;;-1.00;99.90;;;;;;5082545;27;89089;-31
2021/12/11 00:53:37;;;;;;;31.70;23.65;;;-1.00;99.90;;;;;;5082032;27;90198;-35
2021/12/11 00:56:22;;;;;;;28.30;22.95;;;-1.00;99.90;;;;;;5082551;27;89347;-34
2021/12/11 00:58:51;;;;;;;30.80;21.42;;;-0.90;99.90;;;;;;5063292;27;89912;-36
2021/12/11 01:01:28;;;;;;;31.45;24.50;;;-0.90;99.90;;;;;;5081564;27;87873;-35
2021/12/11 01:04:17;;;;;;;29.23;22.77;;;-0.90;99.90;;;;;;5062695;27;89400;-34
2021/12/11 01:06:47;;;;;;;26.88;23.52;;;-1.00;99.90;;;;;;5080925;27;91095;-36
2021/12/11 01:09:21;;;;;;;28.77;22.65;;;-1.00;99.90;;;;;;5081352;27;90564;-32
2021/12/11 01:11:49;;;;;;;31.60;24.25;;;-1.00;99.90;;;;;;5063378;27;90232;-33
2021/12/11 01:14:32;;;;;;;35.05;26.88;;;-0.90;99.90;;;;;;5082053;27;89946;-33
2021/12/11 01:17:07;;;;;;;25.92;21.90;;;-1.00;99.90;;;;;;5081530;27;88962;-39
2021/12/11 01:22:20;;;;;;;34.35;23.50;;;-1.00;99.90;;;;;;5039743;27;89621;-33
2021/12/11 01:24:48;;;;;;;31.08;24.38;;;-1.00;99.90;;;;;;5040338;27;89149;-39
2021/12/11 01:27:19;;;;;;;30.88;23.42;;;-1.10;99.90;;;;;;5022505;27;89568;-37
2021/12/11 01:29:49;;;;;;;33.90;25.95;;;-1.10;99.90;;;;;;5022008;27;89710;-36
2021/12/11 01:32:15;;;;;;;29.52;24.42;;;-1.10;99.90;;;;;;5040370;27;89934;-31
2021/12/11 01:34:43;;;;;;;28.75;23.50;;;-1.10;99.90;;;;;;5040477;27;90339;-36
2021/12/11 01:37:10;;;;;;;32.17;23.20;;;-1.10;99.90;;;;;;5040167;27;90403;-34
2021/12/11 01:39:39;;;;;;;27.00;22.17;;;-1.10;99.90;;;;;;5039614;27;89547;-32
2021/12/11 01:42:14;;;;;;;30.50;22.83;;;-1.10;99.90;;;;;;5040337;27;87780;-32
2021/12/11 01:44:43;;;;;;;33.65;24.63;;;-1.10;99.90;;;;;;5040919;27;88811;-32
2021/12/11 01:47:13;;;;;;;29.73;23.27;;;-1.10;99.90;;;;;;5040174;27;89786;-36
2021/12/11 01:49:42;;;;;;;28.80;23.70;;;-1.20;99.90;;;;;;5021929;27;90520;-31
2021/12/11 01:52:19;;;;;;;31.35;24.02;;;-1.20;99.90;;;;;;5040595;27;90075;-32
2021/12/11 01:54:48;;;;;;;26.33;23.40;;;-1.20;99.90;;;;;;5004384;27;93410;-34
2021/12/11 01:57:24;;;;;;;27.33;22.85;;;-1.20;99.90;;;;;;5039598;27;92801;-32
2021/12/11 01:59:55;;;;;;;31.40;23.05;;;-1.20;99.90;;;;;;5021187;27;90354;-37
2021/12/11 02:02:31;;;;;;;27.20;22.73;;;-1.30;99.90;;;;;;5022132;27;89404;-32
2021/12/11 02:04:57;;;;;;;27.73;21.48;;;-1.30;99.90;;;;;;5040385;27;89977;-32
2021/12/11 02:07:27;;;;;;;30.15;24.98;;;-1.40;99.90;;;;;;5040754;27;89622;-33
2021/12/11 02:09:59;;;;;;;27.85;22.70;;;-1.40;99.90;;;;;;5038956;27;89784;-34
2021/12/11 02:12:35;;;;;;;34.80;23.83;;;-1.50;99.90;;;;;;5005609;27;90065;-36
2021/12/11 02:15:05;;;;;;;33.05;22.52;;;-1.50;99.90;;;;;;5039921;27;90415;-33
2021/12/11 02:17:40;;;;;;;28.52;21.00;;;-1.50;99.90;;;;;;5040278;27;89642;-34
2021/12/11 02:20:10;;;;;;;31.90;21.77;;;-1.50;99.90;;;;;;5039196;27;89408;-35
2021/12/11 02:22:41;;;;;;;26.38;23.50;;;-1.50;99.90;;;;;;5021077;27;89818;-32
2021/12/11 02:25:15;;;;;;;36.28;24.17;;;-1.40;99.90;;;;;;5020997;27;90369;-35
2021/12/11 02:27:52;;;;;;;28.08;24.42;;;-1.40;99.90;;;;;;5021756;27;89521;-37
2021/12/11 02:30:36;;;;;;;31.23;23.60;;;-1.40;99.90;;;;;;5020746;27;91453;-34
2021/12/11 02:33:26;;;;;;;31.63;23.35;;;-1.40;99.90;;;;;;5039556;27;89829;-39
2021/12/11 02:36:22;;;;;;;30.33;21.48;;;-1.40;99.90;;;;;;5021150;27;90416;-36
2021/12/11 02:39:06;;;;;;;28.38;22.10;;;-1.40;99.90;;;;;;5039194;27;88427;-38
2021/12/11 02:41:37;;;;;;;32.67;22.33;;;-1.50;99.90;;;;;;5021864;27;90228;-31
2021/12/11 02:44:11;;;;;;;29.75;23.15;;;-1.50;99.90;;;;;;5040493;27;89162;-34
2021/12/11 02:46:43;;;;;;;29.77;23.25;;;-1.50;99.90;;;;;;5020707;27;91778;-36
2021/12/11 02:49:18;;;;;;;25.13;22.40;;;-1.50;99.90;;;;;;5020594;27;91331;-33
2021/12/11 02:52:03;;;;;;;29.60;23.40;;;-1.50;99.90;;;;;;5004372;27;90571;-38
2021/12/11 02:54:42;;;;;;;31.17;23.40;;;-1.50;99.90;;;;;;5039627;27;89465;-33
2021/12/11 02:57:21;;;;;;;31.88;23.13;;;-1.50;99.90;;;;;;5021842;27;90222;-35
2021/12/11 02:59:48;;;;;;;29.73;23.20;;;-1.50;99.90;;;;;;5038769;27;89588;-32
2021/12/11 03:02:25;;;;;;;40.92;26.02;;;-1.50;99.90;;;;;;5039002;27;91112;-32
2021/12/11 03:04:55;;;;;;;32.65;24.60;;;-1.50;99.90;;;;;;5039158;27;88438;-35
2021/12/11 03:07:34;;;;;;;29.35;25.65;;;-1.40;99.90;;;;;;5021058;27;90188;-38
2021/12/11 03:10:00;;;;;;;34.92;25.58;;;-1.30;99.90;;;;;;5020893;27;89741;-32
2021/12/11 03:12:26;;;;;;;38.08;27.35;;;-1.30;99.90;;;;;;5039807;27;89288;-34
2021/12/11 03:14:52;;;;;;;30.75;27.05;;;-1.30;99.90;;;;;;5035821;27;88942;-35
2021/12/11 03:17:21;;;;;;;37.20;26.65;;;-1.30;99.90;;;;;;5018699;27;89925;-33
2021/12/11 03:19:47;;;;;;;41.53;25.80;;;-1.20;99.90;;;;;;5018072;28;90424;-34
2021/12/11 03:22:17;;;;;;;31.05;25.30;;;-1.20;99.90;;;;;;5019609;28;89276;-34
2021/12/11 03:24:43;;;;;;;32.60;25.55;;;-1.20;99.90;;;;;;5019417;28;90256;-34
2021/12/11 03:27:09;;;;;;;31.77;24.30;;;-1.10;99.90;;;;;;5018704;28;91347;-36
2021/12/11 03:29:35;;;;;;;41.20;28.23;;;-1.10;99.90;;;;;;5018377;28;90265;-35
2021/12/11 03:32:04;;;;;;;39.97;28.17;;;-1.00;99.90;;;;;;5019520;28;90339;-35
2021/12/11 03:34:29;;;;;;;;;;;-1.00;99.90;;;;;;5018656;28;89957;-34
2021/12/11 03:36:58;;;;;;;36.30;26.42;;;-1.00;99.90;;;;;;5020508;28;89906;-31
2021/12/11 03:39:29;;;;;;;37.35;29.08;;;-1.00;99.90;;;;;;5018030;28;88422;-38
2021/12/11 03:41:57;;;;;;;33.85;25.33;;;-0.90;99.90;;;;;;5018414;27;89598;-35
2021/12/11 03:44:23;;;;;;;38.07;25.47;;;-0.90;99.90;;;;;;5004484;28;88653;-32
2021/12/11 03:46:53;;;;;;;35.78;28.92;;;-0.90;99.90;;;;;;5021931;28;89693;-36
2021/12/11 03:49:22;;;;;;;32.60;25.70;;;-0.90;99.90;;;;;;5003952;28;91855;-32
2021/12/11 03:51:49;;;;;;;30.85;23.50;;;-0.80;99.90;;;;;;5003539;28;90863;-32
2021/12/11 03:54:20;;;;;;;38.20;26.48;;;-0.80;99.90;;;;;;5021565;28;88129;-37
2021/12/11 03:56:46;;;;;;;31.40;23.92;;;-0.80;99.90;;;;;;5021804;28;89829;-34
2021/12/11 03:59:13;;;;;;;33.78;26.88;;;-0.80;99.90;;;;;;5022541;28;89476;-35
2021/12/11 04:01:46;;;;;;;34.13;26.23;;;-0.80;99.90;;;;;;5021973;28;90515;-32
2021/12/11 04:04:21;;;;;;;35.50;26.95;;;-0.90;99.90;;;;;;5002700;28;88978;-39
2021/12/11 04:06:47;;;;;;;34.83;28.38;;;-0.80;99.90;;;;;;5003305;28;90206;-32
2021/12/11 04:09:14;;;;;;;42.58;29.92;;;-0.80;99.90;;;;;;5021665;28;89583;-33
2021/12/11 04:11:41;;;;;;;42.53;30.85;;;-0.80;99.90;;;;;;5021435;28;89394;-35
2021/12/11 04:14:20;;;;;;;42.25;30.75;;;-0.80;99.90;;;;;;5021456;28;88117;-37
2021/12/11 04:16:47;;;;;;;41.83;30.45;;;-0.70;99.90;;;;;;5021716;28;90362;-35
2021/12/11 04:19:13;;;;;;;41.85;31.42;;;-0.70;99.90;;;;;;5003639;28;90249;-33
2021/12/11 04:21:41;;;;;;;41.00;30.52;;;-0.60;99.90;;;;;;5021475;28;90029;-36
2021/12/11 04:24:09;;;;;;;38.80;29.23;;;-0.60;99.90;;;;;;5021490;28;87975;-32
2021/12/11 04:26:35;;;;;;;39.10;27.27;;;-0.60;99.90;;;;;;5021586;28;88181;-31
2021/12/11 04:29:01;;;;;;;36.03;26.60;;;-0.70;99.90;;;;;;5020624;28;90849;-35
2021/12/11 04:31:30;;;;;;;32.10;26.63;;;-0.70;99.90;;;;;;5021420;28;89429;-32
2021/12/11 04:33:58;;;;;;;32.72;25.05;;;-0.80;99.90;;;;;;5005199;28;88809;-34
2021/12/11 04:36:37;;;;;;;;;;;-0.80;99.90;;;;;;5026814;28;89432;-35
2021/12/11 04:39:07;;;;;;;33.38;24.73;;;-0.90;99.90;;;;;;5027268;28;88850;-33
2021/12/11 04:41:43;;;;;;;30.75;23.42;;;-1.00;99.90;;;;;;5007082;28;89808;-39
2021/12/11 04:44:13;;;;;;;36.05;25.63;;;-1.00;99.90;;;;;;5007272;28;88064;-35
2021/12/11 04:46:39;;;;;;;33.00;25.63;;;-1.00;99.90;;;;;;5008000;28;90048;-34
2021/12/11 04:49:13;;;;;;;33.80;27.63;;;-1.10;99.90;;;;;;5025451;28;88430;-38
2021/12/11 04:52:06;;;;;;;31.60;26.13;;;-1.10;99.90;;;;;;5025183;28;89441;-32
2021/12/11 04:54:40;;;;;;;33.67;26.60;;;-1.10;99.90;;;;;;5023858;28;89267;-33
2021/12/11 05:02:54;;;;;;;34.78;27.08;;;-1.20;99.90;;;;;;5006877;28;88606;-33
2021/12/11 05:05:40;;;;;;;36.38;27.65;;;-1.20;99.90;;;;;;5007536;28;89020;-32
2021/12/11 05:10:56;;;;;;;35.70;25.10;;;-1.30;99.90;;;;;;5006775;28;89583;-32
2021/12/11 05:13:24;;;;;;;35.33;27.00;;;-1.30;99.90;;;;;;5024925;28;89804;-36
2021/12/11 05:15:52;;;;;;;42.60;27.48;;;-1.30;99.90;;;;;;5024944;28;88357;-32
2021/12/11 05:18:21;;;;;;;39.47;29.47;;;-1.30;99.90;;;;;;5025490;28;90284;-33
2021/12/11 05:20:51;;;;;;;35.85;26.95;;;-1.40;99.90;;;;;;5023660;28;90487;-34
2021/12/11 05:23:17;;;;;;;32.50;25.40;;;-1.40;99.90;;;;;;5037718;27;90882;-31
2021/12/11 05:25:45;;;;;;;28.83;24.52;;;-1.30;99.90;;;;;;5025807;27;88473;-32
2021/12/11 05:28:11;;;;;;;32.55;26.63;;;-1.30;99.90;;;;;;5027422;27;90364;-35
2021/12/11 05:30:40;;;;;;;34.30;25.02;;;-1.30;99.90;;;;;;5026961;27;89559;-31
2021/12/11 05:33:06;;;;;;;38.03;27.52;;;-1.10;99.90;;;;;;5045492;27;89274;-35
2021/12/11 05:35:35;;;;;;;37.03;27.58;;;-0.90;99.90;;;;;;5026631;27;89141;-32
2021/12/11 05:38:02;;;;;;;35.63;28.00;;;-0.90;99.90;;;;;;5026726;27;90455;-36
2021/12/11 05:40:29;;;;;;;36.85;27.23;;;-1.00;99.90;;;;;;5044622;27;89141;-30
2021/12/11 05:42:56;;;;;;;37.20;25.88;;;-1.00;99.90;;;;;;5026647;27;90999;-33
2021/12/11 05:45:22;;;;;;;32.83;26.92;;;-1.10;99.90;;;;;;5044109;27;89354;-31
2021/12/11 05:47:48;;;;;;;35.53;28.40;;;-1.10;99.90;;;;;;5044364;27;90118;-36
2021/12/11 05:50:20;;;;;;;31.90;25.85;;;-1.10;99.90;;;;;;5026228;27;90652;-34
2021/12/11 05:52:48;;;;;;;33.55;27.77;;;-1.10;99.90;;;;;;5026088;27;89642;-37
2021/12/11 05:55:16;;;;;;;35.80;27.33;;;-1.20;99.90;;;;;;5027193;27;88321;-33
2021/12/11 05:57:50;;;;;;;37.58;28.08;;;-1.10;99.90;;;;;;5009578;27;92587;-33
2021/12/11 06:00:17;;;;;;;31.77;27.08;;;-1.20;99.90;;;;;;5026810;27;89501;-33
2021/12/11 06:02:42;;;;;;;30.90;27.30;;;-1.20;99.90;;;;;;5044259;27;89477;-33
2021/12/11 06:05:08;;;;;;;34.03;26.77;;;-1.20;99.90;;;;;;5025225;27;88278;-36
2021/12/11 06:07:35;;;;;;;34.63;26.63;;;-1.30;99.90;;;;;;5045016;27;88799;-32
2021/12/11 06:10:09;;;;;;;38.75;28.52;;;-1.30;99.90;;;;;;5044244;27;91532;-33
2021/12/11 06:12:35;;;;;;;33.42;27.15;;;-1.30;99.90;;;;;;5044130;27;90706;-37
2021/12/11 06:15:01;;;;;;;34.92;27.63;;;-1.40;99.90;;;;;;5022313;27;88684;-35
2021/12/11 06:17:30;;;;;;;33.15;25.90;;;-1.40;99.90;;;;;;5023614;27;88985;-38
2021/12/11 06:19:57;;;;;;;33.28;25.73;;;-1.40;99.90;;;;;;5005089;28;89795;-33
2021/12/11 06:22:29;;;;;;;31.08;25.10;;;-1.50;99.90;;;;;;5022507;28;88596;-35
2021/12/11 06:24:57;;;;;;;41.63;25.88;;;-1.50;99.90;;;;;;5005139;28;89086;-32
2021/12/11 06:27:24;;;;;;;33.03;26.58;;;-1.60;99.90;;;;;;5005062;28;90030;-34
2021/12/11 06:29:50;;;;;;;33.90;25.90;;;-1.70;99.90;;;;;;5023436;28;90867;-32
2021/12/11 06:32:17;;;;;;;31.58;25.25;;;-1.70;99.90;;;;;;5023399;28;88155;-32
2021/12/11 06:34:43;;;;;;;34.97;24.90;;;-1.70;99.90;;;;;;5004160;28;88975;-34
2021/12/11 06:37:14;;;;;;;34.15;25.60;;;-1.80;99.90;;;;;;5022941;28;88346;-29
2021/12/11 06:39:41;;;;;;;34.25;25.90;;;-1.70;99.90;;;;;;5005369;28;89753;-33
2021/12/11 06:42:09;;;;;;;31.75;23.08;;;-1.80;99.90;;;;;;5005045;28;88781;-31
2021/12/11 06:44:35;;;;;;;;;;;-1.80;99.90;;;;;;5005574;28;88708;-31
2021/12/11 06:47:05;;;;;;;30.40;22.77;;;-1.80;99.90;;;;;;5025512;28;89219;-32
2021/12/11 06:49:34;;;;;;;35.28;25.73;;;-1.80;99.90;;;;;;5004343;28;89706;-39
2021/12/11 06:52:01;;;;;;;31.63;26.08;;;-1.80;99.90;;;;;;5004928;28;89491;-36
2021/12/11 06:54:27;;;;;;;27.90;24.40;;;-1.80;99.90;;;;;;5023023;28;88390;-31
2021/12/11 06:56:54;;;;;;;33.15;24.65;;;-1.80;99.90;;;;;;5004395;28;90261;-32
2021/12/11 06:59:20;;;;;;;35.25;24.52;;;-1.80;99.90;;;;;;5004149;28;90657;-33
2021/12/11 07:01:47;;;;;;;35.72;26.45;;;-1.80;99.90;;;;;;5022803;28;88696;-33
2021/12/11 07:04:13;;;;;;;32.63;26.02;;;-1.80;99.90;;;;;;5022959;28;88876;-32
2021/12/11 07:06:42;;;;;;;35.83;26.88;;;-1.80;99.90;;;;;;5022447;28;90230;-30
2021/12/11 07:09:10;;;;;;;29.17;23.95;;;-1.80;99.90;;;;;;5023484;28;89492;-36
2021/12/11 07:11:39;;;;;;;36.38;27.75;;;-1.80;99.90;;;;;;5022604;28;90537;-33
2021/12/11 07:14:06;;;;;;;33.83;28.60;;;-1.80;99.90;;;;;;5004879;28;88225;-36
2021/12/11 07:16:32;;;;;;;38.67;30.65;;;-1.70;99.90;;;;;;5023897;27;88984;-33
2021/12/11 07:18:58;;;;;;;38.80;29.88;;;-1.70;99.90;;;;;;5007990;28;89530;-32
2021/12/11 07:21:24;;;;;;;36.83;29.70;;;-1.60;99.90;;;;;;5025660;28;88269;-34
2021/12/11 07:23:50;;;;;;;36.13;28.60;;;-1.60;99.90;;;;;;5025961;28;89396;-38
2021/12/11 07:26:29;;;;;;;34.50;27.80;;;-1.60;99.90;;;;;;5032682;27;90288;-31
2021/12/11 07:28:56;;;;;;;38.05;24.83;;;-1.60;99.90;;;;;;5046198;27;89456;-32
2021/12/11 07:31:24;;;;;;;31.30;25.40;;;-1.70;99.90;;;;;;5046497;27;89129;-35
2021/12/11 07:33:53;;;;;;;28.38;24.33;;;-1.70;99.90;;;;;;5027601;27;88363;-32
2021/12/11 07:36:20;;;;;;;35.67;24.23;;;-1.80;99.90;;;;;;5046122;27;90775;-35
2021/12/11 07:38:46;;;;;;;26.23;21.80;;;-1.80;99.90;;;;;;5045856;27;88620;-34
2021/12/11 07:41:13;;;;;;;30.40;23.35;;;-1.90;99.90;;;;;;5045708;27;89578;-32
2021/12/11 07:43:40;;;;;;;34.58;25.40;;;-1.90;99.90;;;;;;5045840;27;88120;-34
2021/12/11 07:46:09;;;;;;;34.50;25.08;;;-1.90;99.90;;;;;;5028760;27;90221;-33
2021/12/11 07:48:35;;;;;;;32.13;26.27;;;-2.00;99.90;;;;;;5044952;27;90521;-35
2021/12/11 07:51:01;;;;;;;32.85;25.50;;;-2.00;99.90;;;;;;5044792;27;90542;-35
2021/12/11 07:53:27;;;;;;;34.05;27.55;;;-1.90;99.90;;;;;;5046404;27;88543;-31
2021/12/11 07:55:53;;;;;;;33.78;28.48;;;-1.90;99.90;;;;;;5045530;27;89281;-35
2021/12/11 07:58:20;;;;;;;35.03;27.50;;;-1.80;99.90;;;;;;5025252;27;88705;-37
2021/12/11 08:00:47;;;;;;;35.80;28.67;;;-1.80;99.90;;;;;;5016299;27;91319;-38
2021/12/11 08:03:14;;;;;;;43.67;31.20;;;-1.70;99.90;;;;;;5042238;27;88822;-35
2021/12/11 08:05:42;;;;;;;39.15;31.23;;;-1.70;99.90;;;;;;5042016;27;90158;-33
2021/12/11 08:08:10;;;;;;;42.63;28.13;;;-1.60;99.90;;;;;;5043347;27;88387;-34
2021/12/11 08:10:38;;;;;;;35.08;30.55;;;-1.50;99.90;;;;;;5027357;27;89755;-32
2021/12/11 08:13:04;;;;;;;34.90;29.15;;;-1.50;99.90;;;;;;5045852;27;90198;-35
2021/12/11 08:15:31;;;;;;;40.88;31.02;;;-1.50;99.90;;;;;;5045888;27;90753;-32
2021/12/11 08:17:58;;;;;;;42.85;31.25;;;-1.40;99.90;;;;;;5027383;27;91432;-33
2021/12/11 08:20:27;;;;;;;47.42;31.42;;;-1.30;99.90;;;;;;5046035;27;88506;-34
2021/12/11 08:22:54;;;;;;;39.15;31.08;;;-1.30;99.90;;;;;;5041330;27;88823;-32
2021/12/11 08:25:22;;;;;;;49.88;34.85;;;-1.20;99.90;;;;;;5024766;27;91874;-36
2021/12/11 08:27:49;;;;;;;41.67;32.17;;;-1.10;99.90;;;;;;5007353;28;90169;-37
2021/12/11 08:30:16;;;;;;;40.95;31.45;;;-1.00;99.90;;;;;;5024349;28;89518;-37
2021/12/11 08:32:42;;;;;;;40.97;31.33;;;-0.90;99.90;;;;;;5026072;28;88831;-32
2021/12/11 08:35:10;;;;;;;41.05;34.00;;;-0.70;99.90;;;;;;5024799;28;90275;-37
2021/12/11 08:37:38;;;;;;;48.93;35.20;;;-0.70;99.90;;;;;;4999391;27;92501;-35
2021/12/11 08:40:07;;;;;;;42.67;33.78;;;-0.60;99.90;;;;;;4995728;27;92081;-35
2021/12/11 08:42:33;;;;;;;42.55;30.95;;;-0.60;99.90;;;;;;5020100;27;88783;-35
2021/12/11 08:45:06;;;;;;;42.65;33.90;;;-0.50;99.90;;;;;;4980216;27;88767;-31
2021/12/11 08:47:34;;;;;;;44.28;33.78;;;-0.40;99.90;;;;;;5028163;27;89367;-31
2021/12/11 08:50:04;;;;;;;46.90;35.15;;;-0.40;99.90;;;;;;5010700;27;88680;-33
2021/12/11 08:52:36;;;;;;;37.90;30.67;;;-0.30;99.90;;;;;;5010276;27;89073;-34
2021/12/11 08:55:06;;;;;;;39.65;30.92;;;-0.20;99.90;;;;;;5010547;27;90222;-32
2021/12/11 08:57:33;;;;;;;41.33;32.55;;;-0.20;99.90;;;;;;4996813;27;90862;-34
2021/12/11 09:00:09;;;;;;;42.33;32.00;;;-0.10;99.90;;;;;;5021357;27;89243;-37
2021/12/11 09:02:40;;;;;;;38.45;34.17;;;-0.10;99.90;;;;;;5018842;27;89898;-36
2021/12/11 09:05:18;;;;;;;41.10;32.83;;;-0.10;99.90;;;;;;5024082;27;92088;-40
2021/12/11 09:07:50;;;;;;;40.60;31.50;;;0.00;99.90;;;;;;5013201;27;89367;-37
2021/12/11 09:10:30;;;;;;;47.55;34.88;;;0.10;99.90;;;;;;5009117;27;90824;-37
2021/12/11 09:13:29;;;;;;;36.03;31.83;;;0.20;99.90;;;;;;5019178;27;89830;-33
2021/12/11 09:16:06;;;;;;;38.95;30.75;;;0.30;99.90;;;;;;4994131;27;90962;-38
2021/12/11 09:18:39;;;;;;;40.85;34.40;;;0.50;99.90;;;;;;5006288;27;90002;-37
2021/12/11 09:21:26;;;;;;;44.00;33.78;;;0.60;99.90;;;;;;5021355;27;89657;-37
2021/12/11 09:24:04;;;;;;;44.50;33.67;;;0.80;99.90;;;;;;4997734;27;88426;-38
2021/12/11 09:27:02;;;;;;;37.65;32.75;;;1.00;99.90;;;;;;5031071;27;90147;-39
2021/12/11 09:29:42;;;;;;;41.15;33.97;;;1.10;99.90;;;;;;5009215;27;90774;-38
2021/12/11 09:32:25;;;;;;;44.63;33.55;;;1.10;99.90;;;;;;5007397;27;90773;-38
2021/12/11 09:35:02;;;;;;;39.38;31.75;;;1.10;99.90;;;;;;5026454;27;88906;-35
2021/12/11 09:37:30;;;;;;;41.88;32.90;;;1.20;99.90;;;;;;5029169;27;88718;-34
2021/12/11 09:40:00;;;;;;;44.47;32.67;;;1.20;99.90;;;;;;5010439;27;88608;-33
2021/12/11 09:42:25;;;;;;;43.00;34.92;;;1.30;99.90;;;;;;5011286;27;90039;-34
2021/12/11 09:44:59;;;;;;;41.38;33.22;;;1.30;99.90;;;;;;5022246;27;88361;-36
2021/12/11 09:47:36;;;;;;;38.00;32.17;;;1.40;99.90;;;;;;5031598;27;89016;-38
2021/12/11 09:50:09;;;;;;;39.88;35.67;;;1.40;99.90;;;;;;5009184;27;89713;-36
2021/12/11 09:52:37;;;;;;;42.53;34.53;;;1.30;99.90;;;;;;5031230;27;88709;-38
2021/12/11 09:55:17;;;;;;;44.10;35.25;;;1.30;99.90;;;;;;5028885;27;88972;-36
2021/12/11 09:57:46;;;;;;;42.38;35.05;;;1.30;99.90;;;;;;5011359;27;90322;-35
2021/12/11 10:00:23;;;;;;;44.65;37.10;;;1.30;99.90;;;;;;4993872;27;88793;-38
2021/12/11 10:02:50;;;;;;;51.17;38.27;;;1.30;99.90;;;;;;4999651;27;90305;-37
2021/12/11 10:05:33;;;;;;;47.65;38.13;;;1.30;99.90;;;;;;4995680;27;89051;-34
2021/12/11 10:08:30;;;;;;;39.28;35.13;;;1.40;99.90;;;;;;5027247;27;90707;-37
2021/12/11 10:11:15;;;;;;;46.83;35.17;;;1.30;99.90;;;;;;5001921;27;89960;-37
2021/12/11 10:13:52;;;;;;;43.80;36.67;;;1.40;99.90;;;;;;5023663;27;88058;-35
2021/12/11 10:16:22;;;;;;;46.97;37.63;;;1.40;99.90;;;;;;5012366;27;88351;-37
2021/12/11 10:18:48;;;;;;;43.17;34.63;;;1.50;99.90;;;;;;5012317;27;90595;-35
2021/12/11 10:21:19;;;;;;;47.97;35.53;;;1.60;99.90;;;;;;5010584;27;91080;-36
2021/12/11 10:23:47;;;;;;;46.08;35.05;;;1.60;99.90;;;;;;5011787;27;90454;-38
2021/12/11 10:26:15;;;;;;;42.00;37.33;;;1.70;99.90;;;;;;5028637;27;87974;-36
2021/12/11 10:28:44;;;;;;;48.70;36.33;;;1.70;99.90;;;;;;5017711;27;89973;-40
2021/12/11 10:31:19;;;;;;;48.38;35.03;;;1.70;99.90;;;;;;4993559;27;89885;-36
2021/12/11 10:33:45;;;;;;;38.70;34.35;;;1.80;99.90;;;;;;5019689;27;88594;-40
2021/12/11 10:36:14;;;;;;;45.28;36.70;;;1.90;99.90;;;;;;5004865;27;88937;-37
2021/12/11 10:38:41;;;;;;;40.13;32.67;;;1.90;99.90;;;;;;4992737;27;90406;-39
2021/12/11 10:41:09;;;;;;;45.65;36.35;;;2.00;99.90;;;;;;4994311;27;90378;-35
2021/12/11 10:43:47;;;;;;;44.67;34.15;;;2.10;99.90;;;;;;4995541;27;90688;-39
2021/12/11 10:46:15;;;;;;;44.28;36.10;;;2.20;99.90;;;;;;5008468;27;89112;-37
2021/12/11 10:48:42;;;;;;;44.38;34.97;;;2.20;99.90;;;;;;5007703;27;90333;-36
2021/12/11 10:51:17;;;;;;;43.55;34.05;;;2.30;99.90;;;;;;4988663;27;88469;-35
2021/12/11 10:53:46;;;;;;;43.67;35.10;;;2.40;99.90;;;;;;5010248;27;89495;-34
2021/12/11 10:56:15;;;;;;;43.10;37.45;;;2.40;99.90;;;;;;5011861;27;88954;-38
2021/12/11 10:58:45;;;;;;;44.33;34.17;;;2.50;99.90;;;;;;5021124;27;90013;-39
2021/12/11 11:01:13;;;;;;;40.42;34.08;;;2.60;99.90;;;;;;4989465;27;90914;-35
2021/12/11 11:03:44;;;;;;;45.65;34.00;;;2.70;99.90;;;;;;5015596;27;89168;-36
2021/12/11 11:06:09;;;;;;;44.03;35.55;;;2.70;99.90;;;;;;5010117;27;88743;-41
2021/12/11 11:08:35;;;;;;;41.63;36.35;;;2.80;99.90;;;;;;5024213;27;89721;-38
2021/12/11 11:11:10;;;;;;;44.17;33.40;;;2.80;99.90;;;;;;5023038;27;90888;-41
2021/12/11 11:13:36;;;;;;;45.97;34.80;;;2.90;99.90;;;;;;5027645;27;90327;-39
2021/12/11 11:16:03;;;;;;;48.65;36.88;;;3.00;99.90;;;;;;5025096;27;88333;-40
2021/12/11 11:18:30;;;;;;;42.17;35.10;;;3.10;99.90;;;;;;5008620;27;90368;-41
2021/12/11 11:21:07;;;;;;;40.50;35.15;;;3.20;99.90;;;;;;4980565;28;90603;-37
2021/12/11 11:23:33;;;;;;;44.30;34.38;;;3.30;99.90;;;;;;4970511;28;89946;-41
2021/12/11 11:26:03;;;;;;;42.00;36.13;;;3.40;99.90;;;;;;4971688;28;89346;-38
2021/12/11 11:28:33;;;;;;;45.72;36.55;;;3.40;99.90;;;;;;4993826;27;90167;-38
2021/12/11 11:31:03;;;;;;;45.75;35.92;;;3.50;99.90;;;;;;4971198;28;88931;-42
2021/12/11 11:33:30;;;;;;;48.00;35.30;;;3.50;99.90;;;;;;4995113;27;89936;-42
2021/12/11 11:35:58;;;;;;;39.42;33.70;;;3.60;99.90;;;;;;4991571;27;90077;-38
2021/12/11 11:38:26;;;;;;;;;;;3.60;99.90;;;;;;5002253;27;88835;-34
2021/12/11 11:40:57;;;;;;;45.05;35.97;;;3.70;99.90;;;;;;4974330;28;90945;-40
2021/12/11 11:43:24;;;;;;;45.65;36.95;;;3.70;99.90;;;;;;4995137;28;89850;-36
2021/12/11 11:45:52;;;;;;;48.58;37.08;;;3.80;99.90;;;;;;4979468;28;89465;-41
2021/12/11 11:48:20;;;;;;;44.10;38.13;;;3.80;99.90;;;;;;4988787;28;90240;-39
2021/12/11 11:50:48;;;;;;;50.63;37.03;;;3.90;99.90;;;;;;4989740;28;88627;-42
2021/12/11 11:53:16;;;;;;;46.60;36.22;;;4.00;99.90;;;;;;4971375;28;90649;-37
2021/12/11 11:55:46;;;;;;;41.53;35.05;;;4.20;99.90;;;;;;4971736;28;89922;-36
2021/12/11 11:58:12;;;;;;;42.90;35.95;;;4.30;99.90;;;;;;4989882;28;89864;-38
2021/12/11 12:00:53;;;;;;;48.95;38.03;;;4.30;99.90;;;;;;4968747;28;90965;-38
2021/12/11 12:03:23;;;;;;;52.65;35.92;;;4.30;99.90;;;;;;4995322;27;90364;-37
2021/12/11 12:05:51;;;;;;;52.83;39.05;;;4.30;99.90;;;;;;5003895;28;89114;-40
2021/12/11 12:08:17;;;;;;;42.55;35.17;;;4.40;99.90;;;;;;5002474;27;89970;-40
2021/12/11 12:10:46;;;;;;;50.13;36.08;;;4.40;99.90;;;;;;4992235;27;90093;-37
2021/12/11 12:13:12;;;;;;;45.78;35.78;;;4.40;99.90;;;;;;4992454;28;89131;-35
2021/12/11 12:15:43;;;;;;;42.03;35.83;;;4.50;99.90;;;;;;4989177;28;89326;-36
2021/12/11 12:18:09;;;;;;;47.42;36.88;;;4.50;99.90;;;;;;4990625;28;90184;-40
2021/12/11 12:20:37;;;;;;;45.05;37.47;;;4.50;99.90;;;;;;4985889;28;91107;-38
2021/12/11 12:23:03;;;;;;;47.65;34.67;;;4.50;99.90;;;;;;4985842;28;89689;-38
2021/12/11 12:25:29;;;;;;;43.10;37.28;;;4.50;99.90;;;;;;5006376;27;90012;-36
2021/12/11 12:27:55;;;;;;;45.92;35.88;;;4.50;99.90;;;;;;5004531;28;88981;-39
2021/12/11 12:30:28;;;;;;;46.22;35.67;;;4.50;99.90;;;;;;4988490;27;89837;-36
2021/12/11 12:32:55;;;;;;;48.92;36.28;;;4.40;99.90;;;;;;5004874;27;90019;-39
2021/12/11 12:35:24;;;;;;;44.60;36.03;;;4.30;99.90;;;;;;4984585;28;89516;-42
2021/12/11 12:37:51;;;;;;;47.00;37.10;;;4.30;99.90;;;;;;4988002;28;92149;-38
2021/12/11 12:40:40;;;;;;;46.38;36.05;;;4.20;99.90;;;;;;5004150;27;89068;-41
2021/12/11 12:43:20;;;;;;;49.90;37.30;;;4.10;99.90;;;;;;5003311;27;89751;-39
2021/12/11 12:45:50;;;;;;;46.42;34.75;;;4.00;99.90;;;;;;4995788;27;88157;-41
2021/12/11 12:50:58;;;;;;;44.30;35.88;;;3.90;99.90;;;;;;5004278;22;88563;-78
2021/12/11 12:53:26;;;;;;;43.35;37.00;;;3.90;99.90;;;;;;5023987;27;91426;-78
2021/12/11 12:55:56;;;;;;;47.45;35.58;;;3.90;99.90;;;;;;5005176;27;88560;-77
2021/12/11 12:58:38;;;;;;;46.25;36.45;;;4.00;99.90;;;;;;5024091;27;91507;-77
2021/12/11 13:01:11;;;;;;;51.78;36.72;;;4.00;99.90;;;;;;5006012;27;91658;-77
2021/12/11 13:03:41;;;;;;;48.53;34.42;;;4.00;99.90;;;;;;5023180;27;91024;-78